Milroy, Indiana
Current Conditions -  °F | °C
As of 10:53 AM on Thursday 30 Oct 2014 (Local Time) from KGEZ Reporting Station
Clear Clear  
Wind Chill: 49°   Ceiling: Unl
Heat Index: 49°   Visibility: 10mi
Dew Point: 35°   Wind: 3mph
Humidity: 59%   Direction: 130°SE
Pressure: 30.16"   Gusts: NA
Location:  39.5°N, 85.47°W
Report Text: KGEZ 301453Z AUTO 13003KT 10SM CLR 09/02 A3016 RMK AO2 SLP215 I3000 T00940017 58001
Loading
Personal Weather Stations






























Interactive Weather Map
Tropical Storm Tracking
New forecast layout! Learn more

10-Day Weather Forecast

Advertisements
Track Severe Weather on mobile